Cleveland, Ohio
Current Conditions -  °F | °C
As of 3:19 AM on Thursday 27 Nov 2014 (Local Time) from KBKL Reporting Station
Haze Haze  
Wind Chill: -1°   Ceiling: 3000
Heat Index:   Visibility: 4mi
Dew Point: -1°   Wind: 5mph
Humidity: 89%   Direction: 150°SSE
Pressure: 30.02"   Gusts: NA
Location:  41.5°N, 81.69°W
Report Text: KBKL 270819Z 15004KT 4SM BR OVC030 01/M01 A3002 RMK AO2 T00111006
Loading
Personal Weather Stations






























Interactive Weather Map New forecast layout! Learn more

10-Day Weather Forecast

Advertisements
Track Severe Weather on mobile